Terminal Aerodrome Forecast
Issued by NWS Brownsville, TX

Home | Current Version | Previous Version | Text Only | Print | Product List | Glossary On
Versions: 1 2 3 4 5 6 7 8 9 10 11 12
799
FTUS44 KBRO 231720
TAFBRO
TAF
KBRO 231720Z 2318/2418 15021G28KT P6SM FEW040
     FM240100 14015G21KT P6SM FEW035 SCT250
     FM240300 15014KT P6SM FEW030 SCT250=

USA.gov is the U.S. government's official web portal to all federal, state and local government web resources and services.